UAE248 SAEZ-SBGL
Flight info
| Callsign | UAE248 |
|---|---|
| Flight time | N/A |
| Altitude | 37000 |
| Route | KUKEN1J KUKEN UM654 GAMOT DCT USTUN DCT DOKRO UN857 AKNUB |
| Aircraft | B77W/H-SDE1E2E3FGHIJ2J3J4J5M1RWXY/LB1D1 |
Departure
| Time | 2026-05-04 05:32 |
|---|---|
| Airport | Ezeiza International Airport - Ministro Pistarini (SAEZ) |
Arrival
| Time | N/A |
|---|---|
| Airport | Rio Galeão – Tom Jobim International Airport (SBGL) |
| Time | Latitude | Longitude | Altitude | Speed | Heading |
|---|---|---|---|---|---|
| 2026-05-04 04:38 | -34.81607 | -58.53979 | 80 ft | 0 kts | 321° |
| 2026-05-04 05:20 | -34.81609 | -58.53977 | 80 ft | 3 kts | 321° |
| 2026-05-04 05:20 | -34.81629 | -58.53955 | 85 ft | 4 kts | 314° |
| 2026-05-04 05:21 | -34.81648 | -58.53933 | 85 ft | 4 kts | 319° |
| 2026-05-04 05:21 | -34.81670 | -58.53913 | 85 ft | 4 kts | 329° |
| 2026-05-04 05:21 | -34.81694 | -58.53899 | 85 ft | 4 kts | 347° |
| 2026-05-04 05:21 | -34.81719 | -58.53897 | 85 ft | 4 kts | 26° |
| 2026-05-04 05:22 | -34.81731 | -58.53909 | 85 ft | 1 kts | 60° |
| 2026-05-04 05:22 | -34.81732 | -58.53912 | 85 ft | 0 kts | 60° |
| 2026-05-04 05:24 | -34.81722 | -58.53890 | 85 ft | 8 kts | 58° |
| 2026-05-04 05:24 | -34.81702 | -58.53823 | 85 ft | 9 kts | 85° |
| 2026-05-04 05:25 | -34.81708 | -58.53775 | 85 ft | 9 kts | 108° |
| 2026-05-04 05:25 | -34.81747 | -58.53720 | 84 ft | 8 kts | 147° |
| 2026-05-04 05:25 | -34.81748 | -58.53720 | 84 ft | 1 kts | 150° |
| 2026-05-04 05:25 | -34.81765 | -58.53709 | 85 ft | 5 kts | 154° |
| 2026-05-04 05:26 | -34.81810 | -58.53682 | 83 ft | 9 kts | 155° |
| 2026-05-04 05:26 | -34.81881 | -58.53639 | 85 ft | 13 kts | 142° |
| 2026-05-04 05:26 | -34.81923 | -58.53532 | 85 ft | 15 kts | 105° |
| 2026-05-04 05:26 | -34.81946 | -58.53409 | 83 ft | 15 kts | 102° |
| 2026-05-04 05:27 | -34.81969 | -58.53286 | 84 ft | 15 kts | 104° |
| 2026-05-04 05:28 | -34.82153 | -58.52381 | 84 ft | 17 kts | 104° |
| 2026-05-04 05:29 | -34.82181 | -58.52246 | 82 ft | 17 kts | 104° |
| 2026-05-04 05:29 | -34.82208 | -58.52110 | 81 ft | 17 kts | 104° |
| 2026-05-04 05:29 | -34.82235 | -58.51974 | 83 ft | 17 kts | 103° |
| 2026-05-04 05:29 | -34.82259 | -58.51854 | 84 ft | 8 kts | 103° |
| 2026-05-04 05:31 | -34.82510 | -58.51985 | 88 ft | 13 kts | 284° |
| 2026-05-04 05:31 | -34.82452 | -58.52297 | 87 ft | 74 kts | 282° |
| 2026-05-04 05:32 | -34.82287 | -58.53213 | 88 ft | 145 kts | 282° |
| 2026-05-04 05:32 | -34.82034 | -58.54622 | 172 ft | 189 kts | 284° |
| 2026-05-04 05:32 | -34.81746 | -58.56179 | 899 ft | 186 kts | 285° |
| 2026-05-04 05:33 | -34.81218 | -58.59054 | 2536 ft | 176 kts | 288° |
| 2026-05-04 05:33 | -34.80947 | -58.60568 | 2933 ft | 191 kts | 279° |
| 2026-05-04 05:33 | -34.81008 | -58.62242 | 3458 ft | 206 kts | 264° |
| 2026-05-04 05:33 | -34.81462 | -58.63953 | 4039 ft | 217 kts | 250° |
| 2026-05-04 05:34 | -34.82201 | -58.65565 | 4808 ft | 220 kts | 242° |
| 2026-05-04 05:34 | -34.83144 | -58.67054 | 5404 ft | 230 kts | 233° |
| 2026-05-04 05:34 | -34.84370 | -58.68444 | 5728 ft | 255 kts | 225° |
| 2026-05-04 05:34 | -34.85774 | -58.69844 | 6240 ft | 267 kts | 219° |
| 2026-05-04 05:35 | -34.87390 | -58.71023 | 6906 ft | 274 kts | 209° |
| 2026-05-04 05:35 | -34.89296 | -58.71476 | 7564 ft | 290 kts | 178° |
| 2026-05-04 05:35 | -34.91234 | -58.70772 | 8416 ft | 294 kts | 156° |
| 2026-05-04 05:35 | -34.92984 | -58.69476 | 9271 ft | 297 kts | 144° |
| 2026-05-04 05:36 | -34.94485 | -58.67731 | 10103 ft | 301 kts | 133° |
| 2026-05-04 05:36 | -34.95811 | -58.65693 | 10592 ft | 317 kts | 128° |
| 2026-05-04 05:36 | -34.97055 | -58.63334 | 10777 ft | 345 kts | 120° |
| 2026-05-04 05:36 | -34.98099 | -58.60580 | 10977 ft | 372 kts | 111° |
| 2026-05-04 05:37 | -34.98836 | -58.57478 | 11452 ft | 389 kts | 102° |
| 2026-05-04 05:37 | -34.99185 | -58.54160 | 12141 ft | 400 kts | 92° |
| 2026-05-04 05:37 | -34.99132 | -58.50758 | 13014 ft | 404 kts | 86° |
| 2026-05-04 05:38 | -34.98933 | -58.43807 | 14724 ft | 416 kts | 87° |
| 2026-05-04 05:38 | -34.98848 | -58.40246 | 15487 ft | 425 kts | 87° |
| 2026-05-04 05:38 | -34.98763 | -58.36608 | 16232 ft | 433 kts | 88° |
| 2026-05-04 05:38 | -34.98675 | -58.32906 | 16974 ft | 441 kts | 88° |
| 2026-05-04 05:39 | -34.98584 | -58.29135 | 17728 ft | 449 kts | 88° |
| 2026-05-04 05:39 | -34.98541 | -58.27371 | 18073 ft | 452 kts | 88° |
| 2026-05-04 05:40 | -34.98389 | -58.21242 | 19137 ft | 464 kts | 88° |
| 2026-05-04 05:40 | -34.98289 | -58.17284 | 19800 ft | 470 kts | 88° |
| 2026-05-04 05:40 | -34.98187 | -58.13271 | 20474 ft | 477 kts | 89° |
| 2026-05-04 05:41 | -34.98082 | -58.09206 | 21158 ft | 483 kts | 89° |
| 2026-05-04 05:41 | -34.97935 | -58.05106 | 21757 ft | 485 kts | 84° |
| 2026-05-04 05:41 | -34.97046 | -58.01121 | 22171 ft | 493 kts | 61° |
| 2026-05-04 05:41 | -34.95086 | -57.97734 | 22735 ft | 489 kts | 39° |
| 2026-05-04 05:42 | -34.92385 | -57.95412 | 23385 ft | 477 kts | 18° |
| 2026-05-04 05:42 | -34.89210 | -57.94348 | 23954 ft | 461 kts | 356° |
| 2026-05-04 05:42 | -34.86143 | -57.94684 | 24503 ft | 441 kts | 336° |
| 2026-05-04 05:42 | -34.83238 | -57.95831 | 25091 ft | 441 kts | 334° |
| 2026-05-04 05:43 | -34.80240 | -57.96768 | 25542 ft | 448 kts | 338° |
| 2026-05-04 05:43 | -34.77233 | -57.97815 | 25918 ft | 451 kts | 334° |
| 2026-05-04 05:43 | -34.74262 | -57.99053 | 26463 ft | 452 kts | 332° |
| 2026-05-04 05:45 | -34.52866 | -58.07862 | 29942 ft | 477 kts | 334° |
| 2026-05-04 05:45 | -34.49708 | -58.09123 | 30330 ft | 479 kts | 334° |
| 2026-05-04 05:47 | -34.27753 | -58.17922 | 33671 ft | 472 kts | 333° |
| 2026-05-04 05:47 | -34.24640 | -58.19167 | 34103 ft | 471 kts | 333° |
| 2026-05-04 05:47 | -34.21455 | -58.20161 | 34361 ft | 483 kts | 345° |
| 2026-05-04 05:48 | -34.18020 | -58.20055 | 34527 ft | 508 kts | 4° |
| 2026-05-04 05:48 | -34.14622 | -58.18667 | 34825 ft | 526 kts | 22° |
| 2026-05-04 05:48 | -34.11563 | -58.16190 | 35130 ft | 531 kts | 32° |
| 2026-05-04 05:48 | -34.08613 | -58.13482 | 35367 ft | 534 kts | 32° |
| 2026-05-04 05:49 | -34.05662 | -58.10759 | 35646 ft | 535 kts | 32° |
| 2026-05-04 05:49 | -34.02697 | -58.08057 | 35995 ft | 533 kts | 32° |
| 2026-05-04 05:49 | -33.99723 | -58.05394 | 36335 ft | 532 kts | 31° |
| 2026-05-04 05:49 | -33.96738 | -58.02759 | 36662 ft | 531 kts | 31° |
| 2026-05-04 05:51 | -33.75729 | -57.84466 | 37043 ft | 528 kts | 31° |
| 2026-05-04 05:51 | -33.72759 | -57.81886 | 37046 ft | 527 kts | 31° |
| 2026-05-04 05:52 | -33.66813 | -57.76726 | 37050 ft | 527 kts | 31° |
| 2026-05-04 05:52 | -33.60862 | -57.71574 | 37026 ft | 527 kts | 31° |
| 2026-05-04 05:54 | -33.37010 | -57.51014 | 37049 ft | 531 kts | 31° |
| 2026-05-04 05:55 | -33.31012 | -57.45864 | 37041 ft | 531 kts | 31° |
| 2026-05-04 05:55 | -33.25008 | -57.40718 | 37054 ft | 531 kts | 31° |
| 2026-05-04 05:56 | -33.19000 | -57.35578 | 37055 ft | 531 kts | 31° |
| 2026-05-04 05:56 | -33.12994 | -57.30447 | 37053 ft | 531 kts | 31° |
| 2026-05-04 05:57 | -33.06990 | -57.25328 | 37055 ft | 530 kts | 31° |
| 2026-05-04 05:57 | -33.00990 | -57.20221 | 37040 ft | 529 kts | 31° |
| 2026-05-04 05:58 | -32.95001 | -57.15131 | 37052 ft | 529 kts | 31° |
| 2026-05-04 05:58 | -32.89015 | -57.10054 | 37048 ft | 528 kts | 31° |
| 2026-05-04 05:59 | -32.83029 | -57.04985 | 37057 ft | 528 kts | 31° |
| 2026-05-04 05:59 | -32.77045 | -56.99926 | 37051 ft | 528 kts | 31° |
| 2026-05-04 06:00 | -32.71065 | -56.94878 | 37048 ft | 527 kts | 31° |
| 2026-05-04 06:00 | -32.65088 | -56.89842 | 37062 ft | 527 kts | 31° |
| 2026-05-04 06:01 | -32.59115 | -56.84815 | 37061 ft | 527 kts | 31° |
| 2026-05-04 06:03 | -32.35221 | -56.64790 | 37062 ft | 527 kts | 30° |
| 2026-05-04 06:05 | -32.08259 | -56.42342 | 37063 ft | 527 kts | 30° |
| 2026-05-04 06:06 | -32.02262 | -56.37379 | 37072 ft | 527 kts | 30° |
| 2026-05-04 06:06 | -31.96261 | -56.32416 | 37075 ft | 527 kts | 30° |
| 2026-05-04 06:07 | -31.90257 | -56.27459 | 37070 ft | 527 kts | 30° |
| 2026-05-04 06:07 | -31.84250 | -56.22506 | 37072 ft | 527 kts | 30° |
| 2026-05-04 06:08 | -31.78246 | -56.17564 | 37067 ft | 527 kts | 30° |
| 2026-05-04 06:08 | -31.72239 | -56.12628 | 37087 ft | 527 kts | 30° |
| 2026-05-04 06:09 | -31.66226 | -56.07695 | 37069 ft | 527 kts | 30° |
| 2026-05-04 06:11 | -31.42168 | -55.88029 | 37093 ft | 528 kts | 30° |
| 2026-05-04 06:13 | -31.19065 | -55.69248 | 37074 ft | 527 kts | 30° |
| 2026-05-04 06:14 | -30.98003 | -55.52089 | 37078 ft | 536 kts | 36° |
| 2026-05-04 06:15 | -30.92835 | -55.45670 | 37092 ft | 551 kts | 51° |
| 2026-05-04 06:15 | -30.88888 | -55.37925 | 37091 ft | 560 kts | 60° |
| 2026-05-04 06:16 | -30.85231 | -55.29874 | 37057 ft | 564 kts | 61° |
| 2026-05-04 06:16 | -30.81528 | -55.21823 | 37078 ft | 565 kts | 60° |
| 2026-05-04 06:17 | -30.77760 | -55.13803 | 37084 ft | 565 kts | 60° |
| 2026-05-04 06:17 | -30.73969 | -55.05814 | 37079 ft | 563 kts | 60° |
| 2026-05-04 06:18 | -30.70190 | -54.97862 | 37074 ft | 561 kts | 60° |
| 2026-05-04 06:20 | -30.55155 | -54.66314 | 37076 ft | 557 kts | 59° |
| 2026-05-04 06:21 | -30.45764 | -54.46740 | 37075 ft | 558 kts | 59° |
| 2026-05-04 06:22 | -30.41983 | -54.38887 | 37078 ft | 558 kts | 59° |
| 2026-05-04 06:25 | -30.15306 | -53.83917 | 37079 ft | 560 kts | 59° |
| 2026-05-04 06:26 | -30.11474 | -53.76085 | 37082 ft | 560 kts | 59° |
| 2026-05-04 06:26 | -30.07636 | -53.68255 | 37086 ft | 560 kts | 59° |
| 2026-05-04 06:27 | -29.98040 | -53.48746 | 37083 ft | 561 kts | 59° |
| 2026-05-04 06:28 | -29.94182 | -53.40930 | 37085 ft | 561 kts | 59° |
| 2026-05-04 06:28 | -29.90321 | -53.33123 | 37082 ft | 561 kts | 59° |
| 2026-05-04 06:29 | -29.86455 | -53.25321 | 37079 ft | 561 kts | 59° |
| 2026-05-04 06:29 | -29.82584 | -53.17526 | 37083 ft | 561 kts | 59° |
| 2026-05-04 06:30 | -29.78710 | -53.09736 | 37085 ft | 561 kts | 59° |
| 2026-05-04 06:30 | -29.74829 | -53.01951 | 37090 ft | 561 kts | 59° |
| 2026-05-04 06:31 | -29.70945 | -52.94174 | 37083 ft | 561 kts | 59° |
| 2026-05-04 06:31 | -29.67057 | -52.86405 | 37090 ft | 561 kts | 59° |
| 2026-05-04 06:33 | -29.51456 | -52.55381 | 37087 ft | 561 kts | 59° |
| 2026-05-04 06:34 | -29.47541 | -52.47628 | 37111 ft | 561 kts | 59° |
| 2026-05-04 06:34 | -29.43643 | -52.39927 | 37101 ft | 562 kts | 59° |
| 2026-05-04 06:36 | -29.27863 | -52.08903 | 37115 ft | 564 kts | 59° |
| 2026-05-04 06:37 | -29.23902 | -52.01156 | 37099 ft | 564 kts | 59° |
| 2026-05-04 06:37 | -29.19938 | -51.93414 | 37112 ft | 563 kts | 59° |
| 2026-05-04 06:38 | -29.15976 | -51.85688 | 37117 ft | 562 kts | 59° |
| 2026-05-04 06:40 | -29.00097 | -51.54883 | 37115 ft | 562 kts | 59° |
| 2026-05-04 06:40 | -28.96121 | -51.47204 | 37128 ft | 562 kts | 59° |
| 2026-05-04 06:41 | -28.92134 | -51.39522 | 37122 ft | 563 kts | 59° |
| 2026-05-04 06:41 | -28.88144 | -51.31844 | 37105 ft | 563 kts | 59° |
| 2026-05-04 06:42 | -28.84173 | -51.24219 | 37120 ft | 563 kts | 59° |
| 2026-05-04 06:44 | -28.68145 | -50.93582 | 37143 ft | 563 kts | 59° |
| 2026-05-04 06:44 | -28.64123 | -50.85929 | 37149 ft | 563 kts | 59° |
| 2026-05-04 06:45 | -28.60098 | -50.78284 | 37144 ft | 563 kts | 59° |
| 2026-05-04 06:45 | -28.56072 | -50.70652 | 37145 ft | 563 kts | 59° |
| 2026-05-04 06:46 | -28.52042 | -50.63027 | 37149 ft | 562 kts | 58° |
| 2026-05-04 06:46 | -28.48010 | -50.55413 | 37150 ft | 562 kts | 58° |
| 2026-05-04 06:48 | -28.31886 | -50.25093 | 37162 ft | 560 kts | 58° |
| 2026-05-04 06:50 | -28.15742 | -49.94955 | 37176 ft | 558 kts | 58° |
| 2026-05-04 06:51 | -28.11702 | -49.87445 | 37170 ft | 558 kts | 57° |
| 2026-05-04 06:51 | -28.07682 | -49.79986 | 37183 ft | 558 kts | 58° |
| 2026-05-04 06:52 | -28.03628 | -49.72478 | 37177 ft | 559 kts | 57° |
| 2026-05-04 06:52 | -27.99576 | -49.64986 | 37182 ft | 558 kts | 57° |
| 2026-05-04 06:53 | -27.95521 | -49.57501 | 37177 ft | 558 kts | 57° |
| 2026-05-04 06:53 | -27.91462 | -49.50022 | 37177 ft | 558 kts | 57° |
| 2026-05-04 06:54 | -27.87396 | -49.42545 | 37175 ft | 558 kts | 57° |
| 2026-05-04 06:54 | -27.83325 | -49.35072 | 37181 ft | 559 kts | 57° |
| 2026-05-04 06:55 | -27.79250 | -49.27599 | 37171 ft | 558 kts | 57° |
| 2026-05-04 06:55 | -27.75173 | -49.20139 | 37178 ft | 558 kts | 57° |
| 2026-05-04 06:57 | -27.58844 | -48.90325 | 37154 ft | 558 kts | 57° |
| 2026-05-04 06:58 | -27.54815 | -48.82848 | 37153 ft | 558 kts | 57° |
| 2026-05-04 06:58 | -27.50780 | -48.75368 | 37166 ft | 559 kts | 57° |
| 2026-05-04 06:59 | -27.46726 | -48.67882 | 37164 ft | 560 kts | 56° |
| 2026-05-04 06:59 | -27.42657 | -48.60390 | 37151 ft | 562 kts | 56° |
| 2026-05-04 07:01 | -27.26323 | -48.30442 | 37139 ft | 562 kts | 56° |
| 2026-05-04 07:02 | -27.22890 | -48.24174 | 37145 ft | 562 kts | 56° |
| 2026-05-04 07:02 | -27.18789 | -48.16696 | 37143 ft | 562 kts | 56° |
| 2026-05-04 07:03 | -27.14683 | -48.09223 | 37139 ft | 562 kts | 56° |
| 2026-05-04 07:03 | -27.10574 | -48.01757 | 37134 ft | 562 kts | 55° |
| 2026-05-04 07:04 | -27.06463 | -47.94299 | 37138 ft | 562 kts | 55° |
| 2026-05-04 07:04 | -27.02345 | -47.86843 | 37133 ft | 562 kts | 55° |
| 2026-05-04 07:05 | -26.98222 | -47.79391 | 37151 ft | 562 kts | 55° |
| 2026-05-04 07:05 | -26.94095 | -47.71942 | 37141 ft | 562 kts | 55° |
| 2026-05-04 07:06 | -26.87924 | -47.60827 | 37144 ft | 563 kts | 54° |
| 2026-05-04 07:07 | -26.83780 | -47.53379 | 37138 ft | 564 kts | 54° |
| 2026-05-04 07:09 | -26.67125 | -47.23571 | 37146 ft | 566 kts | 54° |
| 2026-05-04 07:09 | -26.62946 | -47.16123 | 37139 ft | 566 kts | 54° |
| 2026-05-04 07:10 | -26.58761 | -47.08676 | 37148 ft | 566 kts | 54° |
| 2026-05-04 07:12 | -26.41988 | -46.78947 | 37152 ft | 566 kts | 54° |
| 2026-05-04 07:12 | -26.37426 | -46.71860 | 37151 ft | 559 kts | 44° |
| 2026-05-04 07:13 | -26.32081 | -46.65612 | 37158 ft | 556 kts | 40° |
| 2026-05-04 07:13 | -26.26682 | -46.59440 | 37150 ft | 556 kts | 40° |
| 2026-05-04 07:14 | -26.13293 | -46.43878 | 37154 ft | 557 kts | 41° |
| 2026-05-04 07:15 | -26.07933 | -46.37642 | 37151 ft | 557 kts | 41° |
| 2026-05-04 07:15 | -26.02569 | -46.31418 | 37155 ft | 557 kts | 40° |
| 2026-05-04 07:16 | -25.97206 | -46.25205 | 37154 ft | 557 kts | 40° |
| 2026-05-04 07:16 | -25.91843 | -46.19001 | 37154 ft | 556 kts | 40° |
| 2026-05-04 07:17 | -25.86519 | -46.12849 | 37156 ft | 556 kts | 40° |
| 2026-05-04 07:17 | -25.81160 | -46.06666 | 37153 ft | 555 kts | 40° |
| 2026-05-04 07:18 | -25.75805 | -46.00495 | 37158 ft | 555 kts | 40° |
| 2026-05-04 07:18 | -25.70450 | -45.94331 | 37155 ft | 554 kts | 40° |
| 2026-05-04 07:19 | -25.65096 | -45.88179 | 37159 ft | 554 kts | 40° |
| 2026-05-04 07:19 | -25.59739 | -45.82039 | 37158 ft | 554 kts | 40° |
| 2026-05-04 07:20 | -25.54383 | -45.75907 | 37148 ft | 554 kts | 40° |
| 2026-05-04 07:20 | -25.49026 | -45.69780 | 37149 ft | 553 kts | 40° |
| 2026-05-04 07:22 | -25.27586 | -45.45339 | 37161 ft | 553 kts | 40° |
| 2026-05-04 07:23 | -25.22220 | -45.39243 | 37157 ft | 553 kts | 40° |
| 2026-05-04 07:23 | -25.16851 | -45.33151 | 37152 ft | 553 kts | 39° |
| 2026-05-04 07:24 | -25.11484 | -45.27070 | 37141 ft | 553 kts | 39° |
| 2026-05-04 07:24 | -25.06114 | -45.20994 | 37162 ft | 553 kts | 39° |
| 2026-05-04 07:26 | -24.84657 | -44.96795 | 37164 ft | 553 kts | 39° |
| 2026-05-04 07:27 | -24.79280 | -44.90750 | 37153 ft | 552 kts | 39° |
| 2026-05-04 07:27 | -24.73950 | -44.84759 | 37143 ft | 538 kts | 39° |
| 2026-05-04 07:28 | -24.68770 | -44.78945 | 37174 ft | 530 kts | 39° |
| 2026-05-04 07:28 | -24.63604 | -44.73170 | 37152 ft | 529 kts | 38° |
| 2026-05-04 07:29 | -24.58461 | -44.67419 | 37136 ft | 523 kts | 38° |
| 2026-05-04 07:29 | -24.55934 | -44.64589 | 36961 ft | 515 kts | 38° |
| 2026-05-04 07:29 | -24.53431 | -44.61794 | 36670 ft | 511 kts | 38° |
| 2026-05-04 07:30 | -24.50941 | -44.59017 | 36268 ft | 509 kts | 38° |
| 2026-05-04 07:30 | -24.48311 | -44.56485 | 35826 ft | 494 kts | 24° |
| 2026-05-04 07:30 | -24.45361 | -44.54720 | 35431 ft | 478 kts | 17° |
| 2026-05-04 07:30 | -24.42376 | -44.53134 | 35095 ft | 475 kts | 16° |
| 2026-05-04 07:31 | -24.39408 | -44.51570 | 34776 ft | 472 kts | 16° |
| 2026-05-04 07:31 | -24.36461 | -44.49995 | 34462 ft | 470 kts | 17° |
| 2026-05-04 07:33 | -24.16372 | -44.38825 | 31942 ft | 456 kts | 18° |
| 2026-05-04 07:33 | -24.13549 | -44.37249 | 31596 ft | 455 kts | 18° |
| 2026-05-04 07:33 | -24.10738 | -44.35682 | 31249 ft | 453 kts | 18° |
| 2026-05-04 07:33 | -24.07938 | -44.34122 | 30923 ft | 450 kts | 18° |
| 2026-05-04 07:34 | -24.05163 | -44.32575 | 30571 ft | 446 kts | 18° |
| 2026-05-04 07:34 | -24.02405 | -44.31039 | 30149 ft | 443 kts | 18° |
| 2026-05-04 07:34 | -23.99665 | -44.29516 | 29673 ft | 440 kts | 18° |
| 2026-05-04 07:34 | -23.96978 | -44.28022 | 29222 ft | 437 kts | 18° |
| 2026-05-04 07:35 | -23.94279 | -44.26522 | 28787 ft | 434 kts | 18° |
| 2026-05-04 07:35 | -23.91635 | -44.24965 | 28322 ft | 433 kts | 27° |
| 2026-05-04 07:35 | -23.89381 | -44.22726 | 27935 ft | 445 kts | 47° |
| 2026-05-04 07:35 | -23.87818 | -44.19783 | 27545 ft | 451 kts | 62° |
| 2026-05-04 07:36 | -23.86527 | -44.16643 | 27141 ft | 455 kts | 62° |
| 2026-05-04 07:36 | -23.85204 | -44.13497 | 26706 ft | 455 kts | 61° |
| 2026-05-04 07:38 | -23.69448 | -44.02884 | 23971 ft | 381 kts | 355° |
| 2026-05-04 07:38 | -23.66798 | -44.02755 | 23580 ft | 382 kts | 356° |
| 2026-05-04 07:38 | -23.64145 | -44.02609 | 23181 ft | 381 kts | 356° |
| 2026-05-04 07:38 | -23.61502 | -44.02446 | 22809 ft | 380 kts | 356° |
| 2026-05-04 07:39 | -23.58868 | -44.02278 | 22440 ft | 379 kts | 357° |
| 2026-05-04 07:39 | -23.56243 | -44.02109 | 22103 ft | 376 kts | 357° |
| 2026-05-04 07:39 | -23.53648 | -44.01941 | 21876 ft | 371 kts | 357° |
| 2026-05-04 07:39 | -23.51083 | -44.01775 | 21640 ft | 367 kts | 357° |
| 2026-05-04 07:40 | -23.48538 | -44.01613 | 21415 ft | 367 kts | 357° |
| 2026-05-04 07:40 | -23.45979 | -44.01452 | 21195 ft | 370 kts | 357° |
| 2026-05-04 07:40 | -23.43431 | -44.01294 | 20970 ft | 373 kts | 357° |
| 2026-05-04 07:40 | -23.40842 | -44.01131 | 20734 ft | 372 kts | 357° |
| 2026-05-04 07:41 | -23.38260 | -44.00968 | 20502 ft | 371 kts | 358° |
| 2026-05-04 07:41 | -23.35683 | -44.00804 | 20266 ft | 370 kts | 358° |
| 2026-05-04 07:41 | -23.33112 | -44.00642 | 20031 ft | 369 kts | 358° |
| 2026-05-04 07:41 | -23.30550 | -44.00480 | 19799 ft | 368 kts | 358° |
| 2026-05-04 07:42 | -23.27999 | -44.00319 | 19576 ft | 367 kts | 358° |
| 2026-05-04 07:42 | -23.25456 | -44.00158 | 19347 ft | 366 kts | 358° |